createdAt,value
2023-01-06T00:01:16.853Z,1.35
2023-01-06T00:03:51.093Z,2.00
2023-01-06T00:06:21.435Z,1.70
2023-01-06T00:08:53.354Z,1.95
2023-01-06T00:11:24.087Z,2.10
2023-01-06T00:13:51.142Z,1.95
2023-01-06T00:16:23.460Z,1.67
2023-01-06T00:18:55.507Z,1.70
2023-01-06T00:21:23.088Z,1.80
2023-01-06T00:23:50.158Z,2.10
2023-01-06T00:26:17.067Z,2.35
2023-01-06T00:28:46.768Z,2.10
2023-01-06T00:31:16.025Z,2.10
2023-01-06T00:33:43.500Z,2.33
2023-01-06T00:36:12.401Z,1.75
2023-01-06T00:38:39.584Z,1.98
2023-01-06T00:41:28.531Z,2.10
2023-01-06T00:43:57.127Z,2.00
2023-01-06T00:46:26.842Z,1.80
2023-01-06T00:49:04.551Z,1.70
2023-01-06T00:51:35.359Z,1.98
2023-01-06T00:54:06.695Z,1.77
2023-01-06T00:56:36.888Z,1.67
2023-01-06T00:59:04.445Z,1.92
2023-01-06T01:01:31.689Z,1.92
2023-01-06T01:03:58.566Z,2.07
2023-01-06T01:06:25.777Z,1.60
2023-01-06T01:08:54.840Z,2.35
2023-01-06T01:11:41.604Z,1.75
2023-01-06T01:14:09.196Z,1.70
2023-01-06T01:16:36.334Z,2.03
2023-01-06T01:19:03.719Z,1.60
2023-01-06T01:21:34.144Z,1.57
2023-01-06T01:24:01.176Z,1.88
2023-01-06T01:26:28.124Z,2.25
2023-01-06T01:31:23.878Z,1.77
2023-01-06T01:33:50.924Z,2.10
2023-01-06T01:36:19.219Z,2.00
2023-01-06T01:38:46.255Z,1.90
2023-01-06T01:41:19.620Z,1.87
2023-01-06T01:43:58.629Z,1.70
2023-01-06T01:46:43.575Z,2.03
2023-01-06T01:49:17.893Z,1.42
2023-01-06T01:51:47.962Z,1.50
2023-01-06T01:54:18.011Z,1.50
2023-01-06T01:56:48.585Z,1.40
2023-01-06T01:59:23.283Z,1.83
2023-01-06T02:01:51.492Z,1.70
2023-01-06T02:04:20.652Z,1.85
2023-01-06T02:06:50.421Z,2.22
2023-01-06T02:09:48.544Z,2.03
2023-01-06T02:12:15.415Z,2.17
2023-01-06T02:14:42.309Z,1.52
2023-01-06T02:17:15.127Z,1.70
2023-01-06T02:20:06.979Z,2.25
2023-01-06T02:23:11.485Z,2.08
2023-01-06T02:25:57.337Z,1.92
2023-01-06T02:28:36.404Z,2.30
2023-01-06T02:31:27.742Z,2.58
2023-01-06T02:34:22.913Z,2.78
2023-01-06T02:37:17.876Z,2.47
2023-01-06T02:39:57.886Z,2.58
2023-01-06T02:43:01.672Z,2.30
2023-01-06T02:45:44.453Z,2.80
2023-01-06T02:48:40.239Z,2.42
2023-01-06T02:51:50.037Z,2.40
2023-01-06T02:54:43.233Z,2.17
2023-01-06T02:57:37.318Z,2.40
2023-01-06T03:00:23.570Z,2.47
2023-01-06T03:03:07.098Z,2.10
2023-01-06T03:05:36.151Z,2.50
2023-01-06T03:08:09.316Z,2.53
2023-01-06T03:10:37.796Z,2.40
2023-01-06T03:13:09.113Z,2.47
2023-01-06T03:15:36.459Z,2.60
2023-01-06T03:18:03.691Z,2.60
2023-01-06T03:20:30.697Z,2.40
2023-01-06T03:22:57.816Z,2.47
2023-01-06T03:25:26.204Z,2.30
2023-01-06T03:27:53.518Z,2.42
2023-01-06T03:30:27.461Z,2.63
2023-01-06T03:33:04.067Z,2.15
2023-01-06T03:35:52.073Z,1.88
2023-01-06T03:38:31.342Z,2.10
2023-01-06T03:41:22.177Z,2.38
2023-01-06T03:44:06.055Z,2.15
2023-01-06T03:46:50.969Z,2.00
2023-01-06T03:49:33.537Z,1.92
2023-01-06T03:52:43.666Z,2.15
2023-01-06T03:55:17.261Z,1.98
2023-01-06T03:57:54.375Z,2.60
2023-01-06T04:00:26.130Z,2.42
2023-01-06T04:02:59.242Z,2.50
2023-01-06T04:05:28.808Z,2.80
2023-01-06T04:07:58.098Z,2.08
2023-01-06T04:10:25.279Z,2.53
2023-01-06T04:12:56.303Z,2.53
2023-01-06T04:15:32.698Z,2.63
2023-01-06T04:20:43.150Z,2.75
2023-01-06T04:23:20.681Z,3.35
2023-01-06T04:25:47.644Z,3.90
2023-01-06T04:28:19.128Z,3.78
2023-01-06T04:30:49.034Z,3.90
2023-01-06T04:33:15.920Z,3.90
2023-01-06T04:35:45.474Z,3.85
2023-01-06T04:38:14.813Z,4.28
2023-01-06T04:40:42.727Z,4.32
2023-01-06T04:43:15.902Z,4.43
2023-01-06T04:45:44.103Z,4.43
2023-01-06T04:50:39.066Z,5.13
2023-01-06T04:53:06.659Z,5.00
2023-01-06T04:55:34.080Z,5.60
2023-01-06T04:58:01.056Z,5.55
2023-01-06T05:00:27.904Z,5.53
2023-01-06T05:02:54.865Z,5.95
2023-01-06T05:05:21.757Z,5.82
2023-01-06T05:07:48.697Z,6.18
2023-01-06T05:10:15.675Z,5.57
2023-01-06T05:12:42.557Z,5.72
2023-01-06T05:15:09.955Z,5.72
2023-01-06T05:17:36.886Z,5.72
2023-01-06T05:20:04.990Z,5.45
2023-01-06T05:22:31.843Z,5.85
2023-01-06T05:24:58.653Z,5.90
2023-01-06T05:27:25.552Z,5.68
2023-01-06T05:29:52.583Z,5.82
2023-01-06T05:32:19.551Z,5.35
2023-01-06T05:34:46.456Z,6.20
2023-01-06T05:37:13.355Z,5.47
2023-01-06T05:39:40.182Z,5.28
2023-01-06T05:42:07.033Z,6.00
2023-01-06T05:44:33.967Z,5.35
2023-01-06T05:47:00.920Z,5.47
2023-01-06T05:49:27.848Z,4.93
2023-01-06T05:51:54.675Z,5.15
2023-01-06T05:54:21.476Z,4.93
2023-01-06T05:56:48.372Z,5.05
2023-01-06T05:59:15.440Z,5.40
2023-01-06T06:01:42.390Z,5.50
2023-01-06T06:04:12.103Z,5.05
2023-01-06T06:06:39.001Z,5.53
2023-01-06T06:09:06.288Z,5.68
2023-01-06T06:11:33.138Z,5.60
2023-01-06T06:14:00.172Z,5.57
2023-01-06T06:16:30.235Z,6.15
2023-01-06T06:18:59.373Z,5.40
2023-01-06T06:21:29.499Z,5.75
2023-01-06T06:23:57.957Z,5.65
2023-01-06T06:26:25.214Z,5.38
2023-01-06T06:28:52.304Z,5.77
2023-01-06T06:31:25.116Z,5.63
2023-01-06T06:34:00.295Z,6.03
2023-01-06T06:36:28.628Z,6.57
2023-01-06T06:38:56.080Z,5.97
2023-01-06T06:41:25.023Z,6.20
2023-01-06T06:43:52.533Z,6.22
2023-01-06T06:46:20.324Z,6.47
2023-01-06T06:48:47.876Z,6.68
2023-01-06T06:51:17.102Z,6.35
2023-01-06T06:53:45.033Z,6.55
2023-01-06T06:56:13.090Z,6.18
2023-01-06T07:01:16.193Z,6.05
2023-01-06T07:03:43.554Z,6.28
2023-01-06T07:06:16.168Z,6.63
2023-01-06T07:08:44.373Z,6.30
2023-01-06T07:13:38.254Z,6.38
2023-01-06T07:16:05.834Z,6.50
2023-01-06T07:18:32.886Z,6.95
2023-01-06T07:20:59.827Z,6.90
2023-01-06T07:23:26.829Z,7.13
2023-01-06T07:25:55.342Z,7.38
2023-01-06T07:28:22.658Z,7.57
2023-01-06T07:30:50.224Z,8.13
2023-01-06T07:33:17.467Z,8.18
2023-01-06T07:35:44.590Z,8.93
2023-01-06T07:38:11.528Z,8.50
2023-01-06T07:40:38.857Z,9.55
2023-01-06T07:43:10.469Z,10.07
2023-01-06T07:45:37.959Z,9.52
2023-01-06T07:48:05.551Z,10.65
2023-01-06T07:50:33.116Z,10.10
2023-01-06T07:53:01.829Z,10.55
2023-01-06T07:55:29.972Z,11.93
2023-01-06T08:00:23.943Z,10.90
2023-01-06T08:02:50.858Z,10.98
2023-01-06T08:05:18.914Z,11.18
2023-01-06T08:07:45.862Z,11.15
2023-01-06T08:10:12.910Z,11.50
2023-01-06T08:12:39.866Z,12.40
2023-01-06T08:15:07.335Z,12.73
2023-01-06T08:17:34.901Z,12.70
2023-01-06T08:20:01.834Z,12.77
2023-01-06T08:22:28.860Z,12.43
2023-01-06T08:24:55.839Z,13.10
2023-01-06T08:27:22.783Z,13.32
2023-01-06T08:29:50.234Z,13.00
2023-01-06T08:32:17.492Z,12.07
2023-01-06T08:34:45.042Z,13.20
2023-01-06T08:37:12.002Z,13.48
2023-01-06T08:39:38.902Z,13.55
2023-01-06T08:42:05.860Z,13.65
2023-01-06T08:44:32.714Z,13.40
2023-01-06T08:46:59.558Z,13.95
2023-01-06T08:49:26.445Z,14.13
2023-01-06T08:51:53.460Z,13.18
2023-01-06T08:54:20.674Z,13.90
2023-01-06T08:56:47.548Z,13.93
2023-01-06T08:59:16.861Z,13.13
2023-01-06T09:01:44.820Z,13.23
2023-01-06T09:04:12.899Z,12.93
2023-01-06T09:06:43.281Z,12.98
2023-01-06T09:09:11.936Z,12.68
2023-01-06T09:11:42.381Z,13.13
2023-01-06T09:14:10.644Z,13.52
2023-01-06T09:19:04.444Z,13.38
2023-01-06T09:21:31.490Z,13.05
2023-01-06T09:23:58.403Z,13.93
2023-01-06T09:26:25.466Z,13.40
2023-01-06T09:28:52.404Z,12.40
2023-01-06T09:31:19.448Z,13.07
2023-01-06T09:33:46.804Z,13.02
2023-01-06T09:36:13.700Z,11.80
2023-01-06T09:38:40.709Z,11.93
2023-01-06T09:41:19.687Z,12.15
2023-01-06T09:44:09.572Z,11.25
2023-01-06T09:46:40.382Z,11.10
2023-01-06T09:49:10.246Z,11.55
2023-01-06T09:51:37.956Z,11.18
2023-01-06T09:54:22.101Z,11.65
2023-01-06T09:56:54.664Z,12.32
2023-01-06T09:59:31.993Z,11.90
2023-01-06T10:02:00.630Z,11.60
2023-01-06T10:04:30.631Z,12.10
2023-01-06T10:07:17.825Z,12.00
2023-01-06T10:09:59.765Z,11.25
2023-01-06T10:13:13.167Z,11.95
2023-01-06T10:15:51.514Z,11.52
2023-01-06T10:18:32.215Z,11.75
2023-01-06T10:21:25.005Z,11.52
2023-01-06T10:24:08.162Z,11.40
2023-01-06T10:26:42.595Z,11.43
2023-01-06T10:29:32.561Z,11.70
2023-01-06T10:32:00.872Z,11.30
2023-01-06T10:36:57.185Z,10.45
2023-01-06T10:39:27.253Z,10.95
2023-01-06T10:42:24.835Z,10.63
2023-01-06T10:44:51.726Z,10.45
2023-01-06T10:47:25.724Z,10.35
2023-01-06T10:49:52.726Z,9.65
2023-01-06T10:52:22.093Z,10.00
2023-01-06T10:54:52.279Z,8.90
2023-01-06T10:57:32.141Z,9.73
2023-01-06T11:00:17.455Z,9.30
2023-01-06T11:02:47.292Z,9.73
2023-01-06T11:05:20.737Z,9.73
2023-01-06T11:07:58.508Z,9.23
2023-01-06T11:10:34.764Z,9.23
2023-01-06T11:13:03.776Z,9.40
2023-01-06T11:15:40.783Z,9.88
2023-01-06T11:18:32.371Z,9.57
2023-01-06T11:21:05.177Z,9.98
2023-01-06T11:23:32.598Z,10.35
2023-01-06T11:26:04.459Z,10.50
2023-01-06T11:28:31.470Z,9.88
2023-01-06T11:31:06.203Z,10.18
2023-01-06T11:33:36.879Z,10.65
2023-01-06T11:36:10.210Z,10.02
2023-01-06T11:38:47.875Z,11.20
2023-01-06T11:41:41.346Z,15.55
2023-01-06T11:44:29.217Z,10.93
2023-01-06T11:50:04.205Z,9.98
2023-01-06T11:52:32.784Z,9.10
2023-01-06T11:55:02.856Z,9.32
2023-01-06T11:57:39.993Z,9.57
2023-01-06T12:00:16.952Z,9.10
2023-01-06T12:03:15.777Z,8.90
2023-01-06T12:06:24.755Z,8.30
2023-01-06T12:09:32.472Z,7.88
2023-01-06T12:14:35.449Z,6.90
2023-01-06T12:17:27.407Z,7.03
2023-01-06T12:20:15.823Z,7.05
2023-01-06T12:22:52.869Z,6.82
2023-01-06T12:25:24.568Z,6.63
2023-01-06T12:28:00.094Z,5.20
2023-01-06T12:30:59.826Z,4.55
2023-01-06T12:33:48.905Z,4.55
2023-01-06T12:36:40.605Z,3.65
2023-01-06T12:39:35.451Z,3.17
2023-01-06T12:42:15.684Z,3.20
2023-01-06T12:44:54.271Z,2.90
2023-01-06T12:47:56.150Z,2.50
2023-01-06T12:50:37.278Z,2.47
2023-01-06T12:53:20.972Z,2.15
2023-01-06T12:56:08.332Z,3.40
2023-01-06T12:58:57.105Z,3.37
2023-01-06T13:01:53.284Z,2.28
2023-01-06T13:04:40.442Z,2.25
2023-01-06T13:07:13.415Z,2.00
2023-01-06T13:09:49.429Z,1.42
2023-01-06T13:12:46.490Z,1.30
2023-01-06T13:15:22.015Z,1.35
2023-01-06T13:18:13.374Z,1.92
2023-01-06T13:20:59.236Z,1.50
2023-01-06T13:23:26.518Z,1.20
2023-01-06T13:26:15.695Z,1.33
2023-01-06T13:29:14.593Z,1.30
2023-01-06T13:32:20.487Z,1.10
2023-01-06T13:35:09.468Z,1.27
2023-01-06T13:37:59.349Z,1.13
2023-01-06T13:40:29.612Z,1.20
2023-01-06T13:43:20.525Z,1.00
2023-01-06T13:45:52.017Z,0.98
2023-01-06T13:48:25.033Z,0.93
2023-01-06T13:50:52.506Z,1.08
2023-01-06T13:53:22.484Z,1.00
2023-01-06T13:56:09.528Z,1.13
2023-01-06T13:58:37.631Z,0.67
2023-01-06T14:01:13.451Z,0.60
2023-01-06T14:03:42.250Z,0.60
2023-01-06T14:06:13.474Z,0.80
2023-01-06T14:08:57.190Z,0.70
2023-01-06T14:11:32.783Z,0.70
2023-01-06T14:14:03.491Z,0.70
2023-01-06T14:16:48.972Z,0.63
2023-01-06T14:19:30.623Z,0.65
2023-01-06T14:22:19.935Z,0.70
2023-01-06T14:25:20.748Z,0.73
2023-01-06T14:27:47.521Z,1.10
2023-01-06T14:30:30.733Z,1.15
2023-01-06T14:33:05.091Z,0.80
2023-01-06T14:35:37.220Z,1.30
2023-01-06T14:38:07.166Z,1.13
2023-01-06T14:40:49.862Z,0.80
2023-01-06T14:43:34.561Z,0.70
2023-01-06T14:46:16.070Z,0.70
2023-01-06T14:48:48.882Z,0.73
2023-01-06T14:51:20.038Z,0.63
2023-01-06T14:53:53.509Z,0.77
2023-01-06T14:56:22.997Z,0.70
2023-01-06T14:58:49.839Z,0.80
2023-01-06T15:01:37.537Z,0.80
2023-01-06T15:06:33.501Z,0.90
2023-01-06T15:09:33.309Z,0.98
2023-01-06T15:12:00.333Z,0.80
2023-01-06T15:14:34.524Z,0.68
2023-01-06T15:17:04.846Z,0.82
2023-01-06T15:19:32.846Z,0.60
2023-01-06T15:22:05.193Z,0.70
2023-01-06T15:24:32.425Z,0.82
2023-01-06T15:27:13.757Z,0.90
2023-01-06T15:29:56.505Z,0.63
2023-01-06T15:32:25.662Z,0.70
2023-01-06T15:34:56.504Z,0.43
2023-01-06T15:37:25.944Z,0.80
2023-01-06T15:39:53.571Z,0.52
2023-01-06T15:42:25.623Z,0.85
2023-01-06T15:45:00.456Z,0.52
2023-01-06T15:47:44.194Z,0.60
2023-01-06T15:50:26.201Z,0.63
2023-01-06T15:53:04.115Z,0.70
2023-01-06T15:55:37.285Z,0.82
2023-01-06T15:58:08.845Z,0.70
2023-01-06T16:00:43.151Z,0.70
2023-01-06T16:03:31.637Z,0.70
2023-01-06T16:06:16.478Z,0.60
2023-01-06T16:08:44.126Z,0.80
2023-01-06T16:11:45.811Z,0.73
2023-01-06T16:14:36.160Z,0.85
2023-01-06T16:17:35.583Z,0.80
2023-01-06T16:20:06.985Z,0.90
2023-01-06T16:22:51.987Z,0.80
2023-01-06T16:25:23.902Z,0.85
2023-01-06T16:27:53.208Z,0.88
2023-01-06T16:30:29.422Z,0.88
2023-01-06T16:33:00.107Z,0.90
2023-01-06T16:35:29.636Z,1.10
2023-01-06T16:37:56.815Z,1.00
2023-01-06T16:40:26.375Z,0.90
2023-01-06T16:43:01.216Z,1.00
2023-01-06T16:45:48.278Z,1.20
2023-01-06T16:48:16.867Z,1.00
2023-01-06T16:50:50.636Z,1.30
2023-01-06T16:53:20.820Z,1.40
2023-01-06T16:55:53.058Z,1.10
2023-01-06T16:58:22.618Z,1.13
2023-01-06T17:00:52.244Z,1.30
2023-01-06T17:03:21.576Z,1.58
2023-01-06T17:05:48.679Z,1.27
2023-01-06T17:08:17.757Z,1.33
2023-01-06T17:10:45.340Z,1.35
2023-01-06T17:13:34.652Z,1.33
2023-01-06T17:16:26.870Z,1.40
2023-01-06T17:19:02.449Z,1.55
2023-01-06T17:21:34.380Z,1.63
2023-01-06T17:24:23.615Z,1.38
2023-01-06T17:26:50.489Z,1.60
2023-01-06T17:29:20.941Z,1.60
2023-01-06T17:31:55.570Z,1.40
2023-01-06T17:34:29.381Z,1.40
2023-01-06T17:36:56.907Z,1.60
2023-01-06T17:39:32.621Z,1.48
2023-01-06T17:42:07.796Z,1.55
2023-01-06T17:44:37.996Z,1.77
2023-01-06T17:47:16.941Z,1.60
2023-01-06T17:49:55.026Z,1.80
2023-01-06T17:55:15.868Z,1.85
2023-01-06T17:57:46.217Z,2.08
2023-01-06T18:00:23.768Z,1.90
2023-01-06T18:03:01.181Z,2.10
2023-01-06T18:05:27.995Z,1.73
2023-01-06T18:08:15.970Z,1.90
2023-01-06T18:15:40.467Z,2.33
2023-01-06T18:18:27.422Z,2.33
2023-01-06T18:20:58.655Z,1.90
2023-01-06T18:23:26.411Z,2.28
2023-01-06T18:25:56.566Z,2.50
2023-01-06T18:28:23.435Z,2.42
2023-01-06T18:31:02.804Z,2.72
2023-01-06T18:33:31.757Z,3.00
2023-01-06T18:35:58.732Z,2.50
2023-01-06T18:38:27.078Z,2.90
2023-01-06T18:40:55.080Z,2.80
2023-01-06T18:43:29.994Z,2.50
2023-01-06T18:46:15.473Z,2.67
2023-01-06T18:48:43.649Z,2.95
2023-01-06T18:51:22.601Z,2.70
2023-01-06T18:53:52.839Z,2.90
2023-01-06T18:56:23.010Z,2.72
2023-01-06T18:58:54.990Z,2.67
2023-01-06T19:01:43.893Z,2.80
2023-01-06T19:04:21.201Z,2.83
2023-01-06T19:06:51.186Z,2.95
2023-01-06T19:09:33.647Z,3.00
2023-01-06T19:12:15.276Z,3.00
2023-01-06T19:14:46.009Z,3.00
2023-01-06T19:17:30.069Z,3.25
2023-01-06T19:20:01.110Z,3.05
2023-01-06T19:22:30.111Z,3.50
2023-01-06T19:25:04.413Z,3.80
2023-01-06T19:27:33.023Z,4.55
2023-01-06T19:30:40.001Z,3.90
2023-01-06T19:33:25.337Z,3.83
2023-01-06T19:35:58.916Z,4.05
2023-01-06T19:38:28.018Z,4.38
2023-01-06T19:40:56.939Z,4.40
2023-01-06T19:43:30.357Z,4.47
2023-01-06T19:45:57.541Z,4.18
2023-01-06T19:48:30.371Z,4.68
2023-01-06T19:51:22.677Z,4.00
2023-01-06T19:53:51.497Z,4.40
2023-01-06T19:56:37.352Z,4.25
2023-01-06T19:59:24.780Z,4.78
2023-01-06T20:01:57.021Z,4.35
2023-01-06T20:04:26.456Z,4.70
2023-01-06T20:06:53.731Z,4.80
2023-01-06T20:09:24.095Z,4.70
2023-01-06T20:11:52.027Z,4.97
2023-01-06T20:14:19.911Z,4.50
2023-01-06T20:16:47.913Z,5.18
2023-01-06T20:19:18.042Z,4.78
2023-01-06T20:21:44.869Z,5.25
2023-01-06T20:24:14.293Z,5.32
2023-01-06T20:26:41.356Z,5.57
2023-01-06T20:29:08.482Z,5.80
2023-01-06T20:31:35.828Z,5.90
2023-01-06T20:34:02.753Z,6.07
2023-01-06T20:36:29.615Z,5.55
2023-01-06T20:38:56.444Z,5.82
2023-01-06T20:41:23.308Z,5.90
2023-01-06T20:43:50.151Z,5.82
2023-01-06T20:46:17.287Z,5.90
2023-01-06T20:48:44.282Z,5.90
2023-01-06T20:51:11.122Z,6.50
2023-01-06T20:53:38.156Z,10.13
2023-01-06T20:56:05.343Z,11.07
2023-01-06T20:58:32.182Z,7.32
2023-01-06T21:00:59.180Z,5.53
2023-01-06T21:03:26.051Z,6.25
2023-01-06T21:05:53.819Z,6.53
2023-01-06T21:08:20.721Z,6.40
2023-01-06T21:10:47.713Z,6.00
2023-01-06T21:13:15.256Z,5.78
2023-01-06T21:15:42.143Z,5.75
2023-01-06T21:18:08.910Z,5.28
2023-01-06T21:20:35.795Z,5.18
2023-01-06T21:23:02.590Z,5.25
2023-01-06T21:25:29.531Z,5.50
2023-01-06T21:27:56.360Z,6.13
2023-01-06T21:30:24.320Z,5.20
2023-01-06T21:32:51.291Z,5.43
2023-01-06T21:35:18.057Z,5.60
2023-01-06T21:37:44.905Z,5.40
2023-01-06T21:40:14.849Z,6.68
2023-01-06T21:43:00.207Z,8.13
2023-01-06T21:45:27.264Z,5.13
2023-01-06T21:47:54.071Z,5.38
2023-01-06T21:50:22.461Z,5.55
2023-01-06T21:52:49.582Z,5.50
2023-01-06T21:55:16.867Z,5.47
2023-01-06T21:57:44.412Z,5.43
2023-01-06T22:00:11.721Z,5.05
2023-01-06T22:02:41.569Z,4.85
2023-01-06T22:05:08.928Z,4.95
2023-01-06T22:07:39.541Z,5.30
2023-01-06T22:10:08.399Z,5.10
2023-01-06T22:12:36.577Z,5.28
2023-01-06T22:17:30.804Z,4.93
2023-01-06T22:19:57.998Z,5.18
2023-01-06T22:22:25.435Z,4.93
2023-01-06T22:24:54.155Z,4.90
2023-01-06T22:27:21.878Z,4.88
2023-01-06T22:29:48.809Z,4.80
2023-01-06T22:32:15.887Z,4.80
2023-01-06T22:34:42.766Z,4.97
2023-01-06T22:37:09.749Z,5.63
2023-01-06T22:39:36.696Z,5.45
2023-01-06T22:42:03.773Z,5.60
2023-01-06T22:44:30.627Z,5.63
2023-01-06T22:46:57.669Z,5.20
2023-01-06T22:49:24.610Z,6.07
2023-01-06T22:51:52.048Z,5.65
2023-01-06T22:54:19.146Z,5.53
2023-01-06T22:56:46.030Z,6.30
2023-01-06T22:59:12.887Z,5.85
2023-01-06T23:01:39.829Z,5.85
2023-01-06T23:04:06.841Z,5.95
2023-01-06T23:06:34.082Z,5.50
2023-01-06T23:09:01.326Z,6.25
2023-01-06T23:11:29.780Z,5.72
2023-01-06T23:13:57.706Z,5.35
2023-01-06T23:16:26.790Z,5.85
2023-01-06T23:18:54.281Z,5.93
2023-01-06T23:21:26.807Z,6.05
2023-01-06T23:23:54.160Z,5.80
2023-01-06T23:26:34.015Z,5.67
2023-01-06T23:29:01.518Z,5.88
2023-01-06T23:31:31.074Z,6.00
2023-01-06T23:34:03.050Z,5.60
2023-01-06T23:36:33.159Z,5.93
2023-01-06T23:39:01.908Z,5.60
2023-01-06T23:41:30.703Z,5.85
2023-01-06T23:43:58.925Z,6.18
2023-01-06T23:46:29.842Z,5.93
2023-01-06T23:48:57.592Z,6.75
2023-01-06T23:51:25.963Z,6.25
2023-01-06T23:53:53.408Z,6.90
2023-01-06T23:56:24.969Z,6.65
2023-01-06T23:58:54.190Z,6.65
